createdAt,value
2023-11-28T09:17:54.033Z,5.50
2023-11-28T09:20:21.948Z,5.62
2023-11-28T09:22:52.675Z,5.71
2023-11-28T09:25:20.168Z,5.82
2023-11-28T09:27:48.831Z,5.82
2023-11-28T09:30:16.536Z,5.79
2023-11-28T09:32:44.371Z,5.64
2023-11-28T09:35:14.135Z,5.81
2023-11-28T09:37:42.917Z,5.76
2023-11-28T09:40:10.906Z,5.59
2023-11-28T09:42:42.095Z,5.66
2023-11-28T09:45:10.564Z,5.93
2023-11-28T09:47:39.969Z,5.85
2023-11-28T09:50:13.573Z,5.89
2023-11-28T09:52:45.767Z,5.82
2023-11-28T09:55:15.519Z,6.16
2023-11-28T09:57:47.103Z,5.97
2023-11-28T10:00:21.416Z,5.80
2023-11-28T10:02:53.645Z,5.97
2023-11-28T10:05:22.394Z,5.85
2023-11-28T10:07:54.299Z,5.54
2023-11-28T10:10:24.795Z,5.80
2023-11-28T10:12:53.309Z,5.83
2023-11-28T10:15:26.592Z,5.90
2023-11-28T10:17:54.195Z,5.95
2023-11-28T10:20:23.032Z,5.93
2023-11-28T10:22:52.858Z,5.80
2023-11-28T10:25:26.518Z,5.79
2023-11-28T10:28:00.139Z,6.09
2023-11-28T10:30:29.094Z,6.17
2023-11-28T10:33:01.321Z,6.08
2023-11-28T10:35:58.062Z,5.93
2023-11-28T10:38:28.651Z,5.82
2023-11-28T10:40:56.939Z,6.02
2023-11-28T10:43:24.425Z,6.03
2023-11-28T10:45:53.968Z,6.26
2023-11-28T10:48:21.539Z,6.33
2023-11-28T10:50:50.076Z,6.43
2023-11-28T10:53:18.651Z,6.54
2023-11-28T10:55:51.689Z,6.60
2023-11-28T10:58:21.078Z,6.50
2023-11-28T11:00:56.282Z,6.53
2023-11-28T11:03:24.997Z,6.63
2023-11-28T11:05:52.592Z,6.61
2023-11-28T11:08:21.355Z,6.70
2023-11-28T11:10:49.829Z,6.77
2023-11-28T11:13:38.762Z,6.99
2023-11-28T11:16:19.734Z,7.02
2023-11-28T11:18:51.091Z,7.04
2023-11-28T11:21:24.348Z,7.17
2023-11-28T11:23:56.109Z,7.18
2023-11-28T11:26:38.139Z,7.38
2023-11-28T11:29:20.822Z,7.44
2023-11-28T11:31:51.937Z,7.25
2023-11-28T11:34:36.615Z,7.24
2023-11-28T11:37:07.298Z,7.39
2023-11-28T11:39:39.300Z,7.43
2023-11-28T11:42:13.282Z,7.36
2023-11-28T11:44:47.627Z,7.08
2023-11-28T11:47:24.007Z,7.12
2023-11-28T11:49:52.930Z,7.12
2023-11-28T11:52:21.811Z,7.04
2023-11-28T11:54:49.404Z,7.15
2023-11-28T11:57:17.629Z,7.24
2023-11-28T11:59:45.673Z,7.16
2023-11-28T12:02:13.523Z,7.14
2023-11-28T12:04:43.518Z,7.32
2023-11-28T12:07:15.569Z,7.43
2023-11-28T12:09:43.571Z,7.45
2023-11-28T12:12:14.546Z,7.47
2023-11-28T12:14:42.488Z,7.43
2023-11-28T12:17:10.238Z,7.53
2023-11-28T12:19:37.714Z,7.68
2023-11-28T12:22:06.665Z,7.64
2023-11-28T12:59:06.171Z,7.74
2023-11-28T13:01:34.725Z,7.72
2023-11-28T13:04:04.074Z,7.76
2023-11-28T13:06:47.145Z,7.74
2023-11-28T13:09:20.734Z,7.69
2023-11-28T13:11:48.170Z,7.72
2023-11-28T13:14:15.717Z,7.74
2023-11-28T13:16:52.736Z,7.75
2023-11-28T13:19:27.401Z,7.75
2023-11-28T13:21:55.232Z,7.78
2023-11-28T13:24:22.591Z,7.79
2023-11-28T13:26:49.916Z,7.81
2023-11-28T13:29:17.678Z,7.84
2023-11-28T13:31:45.940Z,7.88
2023-11-28T13:34:13.761Z,7.89
2023-11-28T13:36:41.454Z,7.91
2023-11-28T13:39:08.887Z,7.90
2023-11-28T13:41:36.588Z,7.89
2023-11-28T13:44:03.984Z,7.91
2023-11-28T13:46:36.876Z,7.96
2023-11-28T13:49:04.313Z,7.94
2023-11-28T13:51:31.798Z,7.95
2023-11-28T13:53:59.156Z,7.97
2023-11-28T13:56:26.563Z,8.01
2023-11-28T13:58:54.226Z,8.01
2023-11-28T14:01:23.808Z,8.01
2023-11-28T14:03:56.730Z,8.01
2023-11-28T14:06:24.549Z,8.01
2023-11-28T14:21:07.390Z,7.97
2023-11-28T14:23:36.604Z,7.96
2023-11-28T14:26:06.355Z,7.98
2023-11-28T14:28:34.109Z,7.95
2023-11-28T14:31:03.713Z,7.97
2023-11-28T14:33:34.259Z,7.92
2023-11-28T14:36:02.018Z,7.90
2023-11-28T14:38:30.239Z,7.91
2023-11-28T14:41:00.379Z,7.90
2023-11-28T14:43:28.262Z,7.93
2023-11-28T14:45:55.926Z,7.89
2023-11-28T14:48:23.763Z,7.87
2023-11-28T14:50:51.689Z,7.87
2023-11-28T14:53:19.445Z,7.82
2023-11-28T14:55:49.451Z,7.83
2023-11-28T14:58:17.101Z,7.81
2023-11-28T15:00:48.500Z,7.78
2023-11-28T15:03:16.503Z,7.75
2023-11-28T15:05:45.930Z,7.71
2023-11-28T15:08:14.321Z,7.67
2023-11-28T15:10:42.605Z,7.62
2023-11-28T15:13:12.008Z,7.56
2023-11-28T15:15:41.644Z,7.42
2023-11-28T15:18:09.552Z,7.36
2023-11-28T15:20:37.315Z,7.35
2023-11-28T15:23:08.596Z,7.31
2023-11-28T15:25:37.647Z,7.18
2023-11-28T15:28:05.359Z,7.12
2023-11-28T15:30:32.979Z,7.03
2023-11-28T15:33:01.471Z,6.99
2023-11-28T15:35:29.510Z,6.94
2023-11-28T15:38:01.939Z,6.84
2023-11-28T15:40:33.716Z,6.74
2023-11-28T15:43:04.750Z,6.68
2023-11-28T15:45:35.558Z,6.66
2023-11-28T15:48:05.721Z,6.59
2023-11-28T15:50:34.983Z,6.48
2023-11-28T15:53:02.863Z,6.37
2023-11-28T15:55:30.489Z,6.32
2023-11-28T15:57:58.074Z,6.33
2023-11-28T16:00:27.133Z,6.49
2023-11-28T16:02:58.955Z,6.44
2023-11-28T16:05:27.093Z,6.29
2023-11-28T16:07:55.288Z,6.17
2023-11-28T16:10:22.802Z,6.11
2023-11-28T16:12:51.582Z,6.04
2023-11-28T16:15:19.528Z,6.08
2023-11-28T16:17:47.584Z,6.08
2023-11-28T16:20:15.544Z,6.05
2023-11-28T16:22:43.302Z,5.95
2023-11-28T16:25:11.563Z,6.16
2023-11-28T16:27:39.392Z,6.29
2023-11-28T16:30:08.144Z,6.36
2023-11-28T16:32:38.314Z,6.34
2023-11-28T16:35:06.952Z,6.38
2023-11-28T16:37:36.912Z,6.28
2023-11-28T16:40:09.246Z,6.21
2023-11-28T16:42:38.164Z,6.17
2023-11-28T16:45:09.382Z,6.17
2023-11-28T16:47:37.438Z,6.22
2023-11-28T16:50:05.871Z,6.13
2023-11-28T16:52:36.864Z,5.98
2023-11-28T16:55:04.864Z,5.97
2023-11-28T16:57:35.139Z,5.96
2023-11-28T17:00:02.789Z,5.92
2023-11-28T17:02:31.926Z,5.89
2023-11-28T17:04:59.821Z,5.87
2023-11-28T17:07:27.471Z,5.84
2023-11-28T17:09:55.154Z,5.86
2023-11-28T17:12:26.521Z,5.78
2023-11-28T17:14:55.027Z,5.71
2023-11-28T17:17:22.898Z,5.62
2023-11-28T17:19:51.033Z,5.48
2023-11-28T17:22:18.795Z,5.41
2023-11-28T17:24:47.305Z,5.25
2023-11-28T17:27:16.457Z,5.28
2023-11-28T17:29:50.568Z,5.33
2023-11-28T17:32:19.368Z,5.42
2023-11-28T17:34:47.074Z,5.48
2023-11-28T17:37:15.004Z,5.49
2023-11-28T17:39:43.788Z,5.46
2023-11-28T17:42:11.969Z,5.41
2023-11-28T17:44:39.800Z,5.39
2023-11-28T17:47:07.713Z,5.45
2023-11-28T17:49:36.208Z,5.49
2023-11-28T17:52:04.338Z,5.41
2023-11-28T17:54:32.479Z,5.37
2023-11-28T17:57:04.310Z,5.28
2023-11-28T17:59:32.190Z,5.22
2023-11-28T18:02:00.697Z,5.19
2023-11-28T18:04:28.800Z,5.16
2023-11-28T18:06:59.520Z,5.19
2023-11-28T18:09:27.895Z,5.17
2023-11-28T18:11:55.627Z,5.15
2023-11-28T18:14:23.819Z,5.10
2023-11-28T18:16:51.556Z,5.00
2023-11-28T18:19:20.865Z,4.98
2023-11-28T18:21:49.018Z,5.01
2023-11-28T18:24:16.752Z,5.10
2023-11-28T18:26:44.488Z,5.17
2023-11-28T18:29:15.468Z,5.26
2023-11-28T18:31:44.109Z,5.31
2023-11-28T18:34:12.026Z,5.32
2023-11-28T18:36:42.485Z,5.32
2023-11-28T18:39:10.480Z,5.34
2023-11-28T18:41:39.852Z,5.34
2023-11-28T18:44:12.270Z,5.35
2023-11-28T18:46:42.430Z,5.35
2023-11-28T18:49:10.157Z,5.34
2023-11-28T18:51:43.255Z,5.36
2023-11-28T18:54:11.046Z,5.33
2023-11-28T18:56:40.368Z,5.34
2023-11-28T18:59:11.071Z,5.29
2023-11-28T19:01:40.799Z,5.31
2023-11-28T19:04:08.789Z,5.20
2023-11-28T19:06:37.030Z,5.16
2023-11-28T19:09:05.089Z,5.14
2023-11-28T19:11:32.841Z,5.09
2023-11-28T19:14:06.478Z,5.10
2023-11-28T19:16:35.286Z,5.14
2023-11-28T19:19:03.325Z,5.08
2023-11-28T19:21:31.102Z,5.07
2023-11-28T19:23:59.412Z,5.09
2023-11-28T19:26:28.326Z,5.07
2023-11-28T19:28:56.296Z,5.04
2023-11-28T19:31:24.185Z,5.04
2023-11-28T19:33:51.925Z,4.93
2023-11-28T19:36:19.773Z,4.90
2023-11-28T19:38:50.752Z,4.80
2023-11-28T19:41:20.072Z,4.78
2023-11-28T19:43:48.133Z,4.76
2023-11-28T19:46:16.312Z,4.76
2023-11-28T19:48:44.728Z,4.69
2023-11-28T19:51:16.527Z,4.72
2023-11-28T19:53:44.929Z,4.72
2023-11-28T19:56:12.770Z,4.72
2023-11-28T19:58:43.282Z,4.65
2023-11-28T20:01:11.417Z,4.60
2023-11-28T20:03:47.629Z,4.62
2023-11-28T20:06:17.415Z,4.58
2023-11-28T20:08:48.867Z,4.56
2023-11-28T20:11:16.678Z,4.55
2023-11-28T20:13:45.552Z,4.46
2023-11-28T20:16:13.561Z,4.43
2023-11-28T20:18:42.139Z,4.41
2023-11-28T20:21:10.251Z,4.32
2023-11-28T20:23:39.131Z,4.34
2023-11-28T20:26:07.676Z,4.33
2023-11-28T20:28:36.141Z,4.22
2023-11-28T20:31:04.931Z,4.26
2023-11-28T20:33:32.945Z,4.32
2023-11-28T20:36:03.746Z,4.30
2023-11-28T20:38:31.560Z,4.28
2023-11-28T20:40:59.403Z,4.20
2023-11-28T20:43:27.188Z,4.16
2023-11-28T20:45:58.518Z,4.15
2023-11-28T20:48:27.025Z,4.13
2023-11-28T20:50:58.085Z,3.95
2023-11-28T20:53:26.941Z,4.04
2023-11-28T20:55:54.881Z,4.06
2023-11-28T20:58:24.184Z,4.14
2023-11-28T21:00:52.011Z,4.09
2023-11-28T21:03:23.398Z,4.05
2023-11-28T21:05:51.446Z,3.99
2023-11-28T21:08:24.025Z,3.98
2023-11-28T21:10:51.921Z,3.94
2023-11-28T21:13:22.101Z,3.94
2023-11-28T21:15:49.999Z,3.93
2023-11-28T21:18:17.834Z,3.89
2023-11-28T21:20:46.204Z,3.82
2023-11-28T21:23:14.732Z,3.76
2023-11-28T21:25:43.409Z,3.76
2023-11-28T21:28:12.780Z,3.77
2023-11-28T21:30:40.625Z,3.76
2023-11-28T21:33:08.265Z,3.72
2023-11-28T21:35:41.544Z,3.71
2023-11-28T21:38:10.150Z,3.71
2023-11-28T21:40:44.012Z,3.67
2023-11-28T21:43:18.144Z,3.66
2023-11-28T21:45:46.630Z,3.63
2023-11-28T21:48:22.171Z,3.57
2023-11-28T21:50:53.852Z,3.48
2023-11-28T21:53:22.231Z,3.53
2023-11-28T21:55:50.012Z,3.53
2023-11-28T21:58:17.798Z,3.56
2023-11-28T22:00:46.093Z,3.57
2023-11-28T22:03:14.448Z,3.57
2023-11-28T22:05:44.615Z,3.56
2023-11-28T22:08:12.392Z,3.60
2023-11-28T22:10:40.411Z,3.61
2023-11-28T22:13:08.044Z,3.54
2023-11-28T22:15:35.974Z,3.54
2023-11-28T22:18:05.056Z,3.45
2023-11-28T22:20:35.985Z,3.37
2023-11-28T22:23:04.052Z,3.41
2023-11-28T22:25:32.628Z,3.40
2023-11-28T22:28:00.378Z,3.38
2023-11-28T22:30:28.084Z,3.41
2023-11-28T22:32:55.813Z,3.37
2023-11-28T22:35:23.487Z,3.32
2023-11-28T22:37:51.363Z,3.38
2023-11-28T22:40:20.822Z,3.34
2023-11-28T22:42:48.584Z,3.31
2023-11-28T22:45:17.127Z,3.38
2023-11-28T22:47:45.708Z,3.43
2023-11-28T22:50:13.591Z,3.31
2023-11-28T22:52:41.257Z,3.26
2023-11-28T22:55:09.340Z,3.21
2023-11-28T22:57:37.229Z,3.25
2023-11-28T23:00:14.323Z,3.41
2023-11-28T23:02:42.247Z,3.37
2023-11-28T23:05:13.813Z,3.37
2023-11-28T23:07:41.953Z,3.36
2023-11-28T23:10:10.214Z,3.34
2023-11-28T23:12:41.126Z,3.31
2023-11-28T23:15:09.524Z,3.21
2023-11-28T23:17:37.325Z,3.26
2023-11-28T23:20:06.881Z,3.17
2023-11-28T23:22:40.331Z,3.18
2023-11-28T23:25:13.054Z,3.16
2023-11-28T23:27:40.664Z,3.19
2023-11-28T23:30:08.928Z,3.25
2023-11-28T23:32:37.321Z,3.13
2023-11-28T23:35:05.539Z,3.11
2023-11-28T23:37:33.181Z,3.10
2023-11-28T23:40:04.309Z,3.11
2023-11-28T23:42:37.579Z,3.14
2023-11-28T23:45:09.243Z,3.14
2023-11-28T23:47:37.065Z,3.15
2023-11-28T23:50:05.974Z,3.14
2023-11-28T23:52:33.745Z,3.09
2023-11-28T23:55:01.662Z,3.05
2023-11-28T23:57:29.399Z,3.03
2023-11-28T23:59:57.078Z,3.03
